sensor_id;sensor_type;location;lat;lon;timestamp;temperature;humidity
42683;DHT22;28293;50.930;3.464;2022-07-10T00:00:37;15.10;79.30
42683;DHT22;28293;50.930;3.464;2022-07-10T00:03:04;15.00;79.60
42683;DHT22;28293;50.930;3.464;2022-07-10T00:05:30;15.00;79.60
42683;DHT22;28293;50.930;3.464;2022-07-10T00:07:56;14.90;79.80
42683;DHT22;28293;50.930;3.464;2022-07-10T00:10:22;14.90;79.90
42683;DHT22;28293;50.930;3.464;2022-07-10T00:12:50;14.80;80.40
42683;DHT22;28293;50.930;3.464;2022-07-10T00:15:17;14.80;80.40
42683;DHT22;28293;50.930;3.464;2022-07-10T00:17:43;14.70;80.50
42683;DHT22;28293;50.930;3.464;2022-07-10T00:20:10;14.70;80.90
42683;DHT22;28293;50.930;3.464;2022-07-10T00:22:37;14.70;81.10
42683;DHT22;28293;50.930;3.464;2022-07-10T00:25:04;14.70;81.00
42683;DHT22;28293;50.930;3.464;2022-07-10T00:27:30;14.80;81.10
42683;DHT22;28293;50.930;3.464;2022-07-10T00:29:56;14.80;81.10
42683;DHT22;28293;50.930;3.464;2022-07-10T00:32:23;14.70;81.20
42683;DHT22;28293;50.930;3.464;2022-07-10T00:34:48;14.70;81.10
42683;DHT22;28293;50.930;3.464;2022-07-10T00:37:14;14.70;81.00
42683;DHT22;28293;50.930;3.464;2022-07-10T00:39:40;14.70;81.10
42683;DHT22;28293;50.930;3.464;2022-07-10T00:42:10;14.60;81.20
42683;DHT22;28293;50.930;3.464;2022-07-10T00:44:36;14.60;81.30
42683;DHT22;28293;50.930;3.464;2022-07-10T00:47:06;14.60;81.70
42683;DHT22;28293;50.930;3.464;2022-07-10T00:49:33;14.60;81.90
42683;DHT22;28293;50.930;3.464;2022-07-10T00:52:00;14.60;81.90
42683;DHT22;28293;50.930;3.464;2022-07-10T00:54:27;14.60;82.00
42683;DHT22;28293;50.930;3.464;2022-07-10T00:56:54;14.50;82.00
42683;DHT22;28293;50.930;3.464;2022-07-10T00:59:20;14.50;82.20
42683;DHT22;28293;50.930;3.464;2022-07-10T01:01:47;14.50;82.20
42683;DHT22;28293;50.930;3.464;2022-07-10T01:04:13;14.50;82.20
42683;DHT22;28293;50.930;3.464;2022-07-10T01:06:39;14.40;82.10
42683;DHT22;28293;50.930;3.464;2022-07-10T01:09:05;14.50;82.00
42683;DHT22;28293;50.930;3.464;2022-07-10T01:11:33;14.50;82.00
42683;DHT22;28293;50.930;3.464;2022-07-10T01:13:58;14.40;81.90
42683;DHT22;28293;50.930;3.464;2022-07-10T01:16:24;14.40;81.90
42683;DHT22;28293;50.930;3.464;2022-07-10T01:18:50;14.50;81.80
42683;DHT22;28293;50.930;3.464;2022-07-10T01:21:31;14.30;81.60
42683;DHT22;28293;50.930;3.464;2022-07-10T01:23:57;14.20;81.90
42683;DHT22;28293;50.930;3.464;2022-07-10T01:26:24;14.30;82.10
42683;DHT22;28293;50.930;3.464;2022-07-10T01:28:51;14.30;82.30
42683;DHT22;28293;50.930;3.464;2022-07-10T01:31:27;14.30;82.40
42683;DHT22;28293;50.930;3.464;2022-07-10T01:33:53;14.20;82.50
42683;DHT22;28293;50.930;3.464;2022-07-10T01:36:20;14.30;82.50
42683;DHT22;28293;50.930;3.464;2022-07-10T01:38:46;14.30;82.60
42683;DHT22;28293;50.930;3.464;2022-07-10T01:41:12;14.30;82.30
42683;DHT22;28293;50.930;3.464;2022-07-10T01:43:38;14.30;82.30
42683;DHT22;28293;50.930;3.464;2022-07-10T01:46:08;14.30;82.30
42683;DHT22;28293;50.930;3.464;2022-07-10T01:48:37;14.30;82.20
42683;DHT22;28293;50.930;3.464;2022-07-10T01:51:03;14.30;82.30
42683;DHT22;28293;50.930;3.464;2022-07-10T01:53:29;14.20;82.00
42683;DHT22;28293;50.930;3.464;2022-07-10T01:55:55;14.20;81.90
42683;DHT22;28293;50.930;3.464;2022-07-10T01:58:21;14.20;81.70
42683;DHT22;28293;50.930;3.464;2022-07-10T02:00:46;14.20;81.60
42683;DHT22;28293;50.930;3.464;2022-07-10T02:03:12;14.20;81.50
42683;DHT22;28293;50.930;3.464;2022-07-10T02:05:57;14.20;81.60
42683;DHT22;28293;50.930;3.464;2022-07-10T02:08:22;14.10;81.60
42683;DHT22;28293;50.930;3.464;2022-07-10T02:10:48;14.10;81.50
42683;DHT22;28293;50.930;3.464;2022-07-10T02:13:14;14.10;81.60
42683;DHT22;28293;50.930;3.464;2022-07-10T02:15:43;14.10;81.60
42683;DHT22;28293;50.930;3.464;2022-07-10T02:18:08;14.10;81.70
42683;DHT22;28293;50.930;3.464;2022-07-10T02:20:34;14.00;81.70
42683;DHT22;28293;50.930;3.464;2022-07-10T02:23:01;14.00;81.90
42683;DHT22;28293;50.930;3.464;2022-07-10T02:25:27;14.00;81.80
42683;DHT22;28293;50.930;3.464;2022-07-10T02:27:53;13.90;81.90
42683;DHT22;28293;50.930;3.464;2022-07-10T02:30:19;14.00;82.10
42683;DHT22;28293;50.930;3.464;2022-07-10T02:32:44;14.00;82.10
42683;DHT22;28293;50.930;3.464;2022-07-10T02:35:10;14.00;82.10
42683;DHT22;28293;50.930;3.464;2022-07-10T02:37:36;14.00;82.30
42683;DHT22;28293;50.930;3.464;2022-07-10T02:40:02;13.90;82.20
42683;DHT22;28293;50.930;3.464;2022-07-10T02:42:27;13.90;82.30
42683;DHT22;28293;50.930;3.464;2022-07-10T02:44:53;13.90;82.40
42683;DHT22;28293;50.930;3.464;2022-07-10T02:47:19;13.90;82.50
42683;DHT22;28293;50.930;3.464;2022-07-10T02:49:44;13.90;82.40
42683;DHT22;28293;50.930;3.464;2022-07-10T02:52:10;13.80;82.40
42683;DHT22;28293;50.930;3.464;2022-07-10T02:54:36;13.80;82.30
42683;DHT22;28293;50.930;3.464;2022-07-10T02:57:03;13.80;82.30
42683;DHT22;28293;50.930;3.464;2022-07-10T02:59:28;13.70;82.20
42683;DHT22;28293;50.930;3.464;2022-07-10T03:01:54;13.80;82.00
42683;DHT22;28293;50.930;3.464;2022-07-10T03:04:20;13.70;81.90
42683;DHT22;28293;50.930;3.464;2022-07-10T03:06:45;13.60;82.00
42683;DHT22;28293;50.930;3.464;2022-07-10T03:09:11;13.70;82.00
42683;DHT22;28293;50.930;3.464;2022-07-10T03:11:37;13.60;81.90
42683;DHT22;28293;50.930;3.464;2022-07-10T03:14:02;13.60;81.90
42683;DHT22;28293;50.930;3.464;2022-07-10T03:16:29;13.60;82.00
42683;DHT22;28293;50.930;3.464;2022-07-10T03:18:55;13.60;81.90
42683;DHT22;28293;50.930;3.464;2022-07-10T03:21:20;13.60;81.90
42683;DHT22;28293;50.930;3.464;2022-07-10T03:23:46;13.60;82.10
42683;DHT22;28293;50.930;3.464;2022-07-10T03:26:12;13.60;82.30
42683;DHT22;28293;50.930;3.464;2022-07-10T03:28:37;13.50;82.30
42683;DHT22;28293;50.930;3.464;2022-07-10T03:31:03;13.50;82.60
42683;DHT22;28293;50.930;3.464;2022-07-10T03:33:28;13.40;82.80
42683;DHT22;28293;50.930;3.464;2022-07-10T03:35:54;13.50;82.90
42683;DHT22;28293;50.930;3.464;2022-07-10T03:38:20;13.50;83.00
42683;DHT22;28293;50.930;3.464;2022-07-10T03:40:45;13.50;83.00
42683;DHT22;28293;50.930;3.464;2022-07-10T03:43:14;13.40;83.00
42683;DHT22;28293;50.930;3.464;2022-07-10T03:45:40;13.50;82.90
42683;DHT22;28293;50.930;3.464;2022-07-10T03:48:06;13.50;82.90
42683;DHT22;28293;50.930;3.464;2022-07-10T03:50:32;13.50;82.90
42683;DHT22;28293;50.930;3.464;2022-07-10T03:52:58;13.60;82.80
42683;DHT22;28293;50.930;3.464;2022-07-10T03:55:24;13.60;82.70
42683;DHT22;28293;50.930;3.464;2022-07-10T03:57:49;13.60;82.40
42683;DHT22;28293;50.930;3.464;2022-07-10T04:00:23;13.60;82.40
42683;DHT22;28293;50.930;3.464;2022-07-10T04:02:55;13.60;82.10
42683;DHT22;28293;50.930;3.464;2022-07-10T04:05:21;13.60;81.90
42683;DHT22;28293;50.930;3.464;2022-07-10T04:07:47;13.60;81.70
42683;DHT22;28293;50.930;3.464;2022-07-10T04:10:13;13.60;81.60
42683;DHT22;28293;50.930;3.464;2022-07-10T04:12:38;13.60;81.40
42683;DHT22;28293;50.930;3.464;2022-07-10T04:15:04;13.60;81.40
42683;DHT22;28293;50.930;3.464;2022-07-10T04:17:30;13.60;81.60
42683;DHT22;28293;50.930;3.464;2022-07-10T04:19:58;13.60;81.80
42683;DHT22;28293;50.930;3.464;2022-07-10T04:22:24;13.60;81.90
42683;DHT22;28293;50.930;3.464;2022-07-10T04:24:56;13.60;82.00
42683;DHT22;28293;50.930;3.464;2022-07-10T04:27:22;13.60;81.90
42683;DHT22;28293;50.930;3.464;2022-07-10T04:29:48;13.60;82.30
42683;DHT22;28293;50.930;3.464;2022-07-10T04:32:15;13.70;82.40
42683;DHT22;28293;50.930;3.464;2022-07-10T04:34:41;13.80;82.30
42683;DHT22;28293;50.930;3.464;2022-07-10T04:37:07;13.80;82.30
42683;DHT22;28293;50.930;3.464;2022-07-10T04:39:33;13.90;82.30
42683;DHT22;28293;50.930;3.464;2022-07-10T04:42:00;14.00;82.40
42683;DHT22;28293;50.930;3.464;2022-07-10T04:44:26;14.10;82.30
42683;DHT22;28293;50.930;3.464;2022-07-10T04:46:52;14.10;82.10
42683;DHT22;28293;50.930;3.464;2022-07-10T04:49:19;14.20;82.00
42683;DHT22;28293;50.930;3.464;2022-07-10T04:51:44;14.20;82.00
42683;DHT22;28293;50.930;3.464;2022-07-10T04:54:10;14.20;82.00
42683;DHT22;28293;50.930;3.464;2022-07-10T04:56:35;14.20;81.90
42683;DHT22;28293;50.930;3.464;2022-07-10T04:59:01;14.30;82.10
42683;DHT22;28293;50.930;3.464;2022-07-10T05:01:27;14.30;82.00
42683;DHT22;28293;50.930;3.464;2022-07-10T05:03:53;14.30;82.00
42683;DHT22;28293;50.930;3.464;2022-07-10T05:06:19;14.30;82.00
42683;DHT22;28293;50.930;3.464;2022-07-10T05:08:45;14.40;82.00
42683;DHT22;28293;50.930;3.464;2022-07-10T05:11:10;14.50;82.00
42683;DHT22;28293;50.930;3.464;2022-07-10T05:13:36;14.60;82.00
42683;DHT22;28293;50.930;3.464;2022-07-10T05:16:03;14.60;81.20
42683;DHT22;28293;50.930;3.464;2022-07-10T05:18:29;14.70;81.40
42683;DHT22;28293;50.930;3.464;2022-07-10T05:20:54;15.30;81.50
42683;DHT22;28293;50.930;3.464;2022-07-10T05:23:20;17.00;77.10
42683;DHT22;28293;50.930;3.464;2022-07-10T05:25:46;18.80;70.70
42683;DHT22;28293;50.930;3.464;2022-07-10T05:28:12;20.60;64.60
42683;DHT22;28293;50.930;3.464;2022-07-10T05:30:43;22.10;59.20
42683;DHT22;28293;50.930;3.464;2022-07-10T05:33:09;23.10;55.20
42683;DHT22;28293;50.930;3.464;2022-07-10T05:35:35;23.90;52.70
42683;DHT22;28293;50.930;3.464;2022-07-10T05:38:01;24.60;50.40
42683;DHT22;28293;50.930;3.464;2022-07-10T05:40:26;25.20;48.40
42683;DHT22;28293;50.930;3.464;2022-07-10T05:42:52;25.20;47.80
42683;DHT22;28293;50.930;3.464;2022-07-10T05:45:18;25.40;46.60
42683;DHT22;28293;50.930;3.464;2022-07-10T05:47:44;25.40;47.70
42683;DHT22;28293;50.930;3.464;2022-07-10T05:50:10;25.60;44.90
42683;DHT22;28293;50.930;3.464;2022-07-10T05:52:37;25.60;45.30
42683;DHT22;28293;50.930;3.464;2022-07-10T05:55:03;25.60;45.50
42683;DHT22;28293;50.930;3.464;2022-07-10T05:57:30;25.00;46.10
42683;DHT22;28293;50.930;3.464;2022-07-10T05:59:56;24.50;47.70
42683;DHT22;28293;50.930;3.464;2022-07-10T06:02:22;23.80;48.60
42683;DHT22;28293;50.930;3.464;2022-07-10T06:04:48;22.60;52.10
42683;DHT22;28293;50.930;3.464;2022-07-10T06:07:15;21.70;56.00
42683;DHT22;28293;50.930;3.464;2022-07-10T06:09:40;20.80;58.30
42683;DHT22;28293;50.930;3.464;2022-07-10T06:12:06;20.30;59.70
42683;DHT22;28293;50.930;3.464;2022-07-10T06:14:32;20.00;61.30
42683;DHT22;28293;50.930;3.464;2022-07-10T06:16:58;19.60;62.40
42683;DHT22;28293;50.930;3.464;2022-07-10T06:19:24;19.50;64.20
42683;DHT22;28293;50.930;3.464;2022-07-10T06:21:49;19.50;63.70
42683;DHT22;28293;50.930;3.464;2022-07-10T06:24:35;19.40;64.10
42683;DHT22;28293;50.930;3.464;2022-07-10T06:27:01;19.30;64.40
42683;DHT22;28293;50.930;3.464;2022-07-10T06:29:27;19.30;64.10
42683;DHT22;28293;50.930;3.464;2022-07-10T06:31:52;19.20;64.00
42683;DHT22;28293;50.930;3.464;2022-07-10T06:34:18;19.20;63.40
42683;DHT22;28293;50.930;3.464;2022-07-10T06:36:45;19.10;63.50
42683;DHT22;28293;50.930;3.464;2022-07-10T06:39:10;19.10;64.50
42683;DHT22;28293;50.930;3.464;2022-07-10T06:41:36;19.30;65.20
42683;DHT22;28293;50.930;3.464;2022-07-10T06:44:02;19.50;64.90
42683;DHT22;28293;50.930;3.464;2022-07-10T06:46:28;19.40;64.00
42683;DHT22;28293;50.930;3.464;2022-07-10T06:48:54;19.50;63.90
42683;DHT22;28293;50.930;3.464;2022-07-10T06:51:20;19.60;63.60
42683;DHT22;28293;50.930;3.464;2022-07-10T06:53:46;19.70;63.10
42683;DHT22;28293;50.930;3.464;2022-07-10T06:56:12;19.80;63.10
42683;DHT22;28293;50.930;3.464;2022-07-10T06:58:39;19.70;63.00
42683;DHT22;28293;50.930;3.464;2022-07-10T07:01:05;19.70;62.70
42683;DHT22;28293;50.930;3.464;2022-07-10T07:03:31;19.60;64.00
42683;DHT22;28293;50.930;3.464;2022-07-10T07:05:56;19.70;62.40
42683;DHT22;28293;50.930;3.464;2022-07-10T07:08:22;19.60;62.70
42683;DHT22;28293;50.930;3.464;2022-07-10T07:10:47;19.60;62.30
42683;DHT22;28293;50.930;3.464;2022-07-10T07:13:13;19.60;63.60
42683;DHT22;28293;50.930;3.464;2022-07-10T07:15:39;19.50;63.50
42683;DHT22;28293;50.930;3.464;2022-07-10T07:18:08;19.70;64.00
42683;DHT22;28293;50.930;3.464;2022-07-10T07:20:37;19.90;63.20
42683;DHT22;28293;50.930;3.464;2022-07-10T07:23:22;19.70;63.20
42683;DHT22;28293;50.930;3.464;2022-07-10T07:25:48;19.90;62.10
42683;DHT22;28293;50.930;3.464;2022-07-10T07:28:17;20.00;62.80
42683;DHT22;28293;50.930;3.464;2022-07-10T07:30:45;20.00;61.20
42683;DHT22;28293;50.930;3.464;2022-07-10T07:33:11;19.90;61.50
42683;DHT22;28293;50.930;3.464;2022-07-10T07:35:37;19.90;61.30
42683;DHT22;28293;50.930;3.464;2022-07-10T07:38:03;19.90;61.90
42683;DHT22;28293;50.930;3.464;2022-07-10T07:40:29;20.20;61.50
42683;DHT22;28293;50.930;3.464;2022-07-10T07:42:55;20.10;61.20
42683;DHT22;28293;50.930;3.464;2022-07-10T07:45:22;20.10;61.70
42683;DHT22;28293;50.930;3.464;2022-07-10T07:47:55;20.00;61.70
42683;DHT22;28293;50.930;3.464;2022-07-10T07:50:23;20.10;60.90
42683;DHT22;28293;50.930;3.464;2022-07-10T07:52:51;20.20;60.90
42683;DHT22;28293;50.930;3.464;2022-07-10T07:55:17;20.30;60.40
42683;DHT22;28293;50.930;3.464;2022-07-10T07:57:44;20.40;59.80
42683;DHT22;28293;50.930;3.464;2022-07-10T08:00:11;20.50;59.00
42683;DHT22;28293;50.930;3.464;2022-07-10T08:02:38;20.60;58.40
42683;DHT22;28293;50.930;3.464;2022-07-10T08:05:05;20.80;58.30
42683;DHT22;28293;50.930;3.464;2022-07-10T08:07:39;20.80;57.60
42683;DHT22;28293;50.930;3.464;2022-07-10T08:10:07;21.00;57.80
42683;DHT22;28293;50.930;3.464;2022-07-10T08:12:33;20.90;57.50
42683;DHT22;28293;50.930;3.464;2022-07-10T08:14:59;21.00;58.30
42683;DHT22;28293;50.930;3.464;2022-07-10T08:17:26;21.20;56.80
42683;DHT22;28293;50.930;3.464;2022-07-10T08:19:51;21.20;57.60
42683;DHT22;28293;50.930;3.464;2022-07-10T08:22:17;21.30;58.80
42683;DHT22;28293;50.930;3.464;2022-07-10T08:24:43;21.50;56.60
42683;DHT22;28293;50.930;3.464;2022-07-10T08:27:09;21.60;56.10
42683;DHT22;28293;50.930;3.464;2022-07-10T08:29:34;21.60;56.10
42683;DHT22;28293;50.930;3.464;2022-07-10T08:32:00;21.50;56.20
42683;DHT22;28293;50.930;3.464;2022-07-10T08:34:26;21.50;55.90
42683;DHT22;28293;50.930;3.464;2022-07-10T08:36:53;21.50;56.30
42683;DHT22;28293;50.930;3.464;2022-07-10T08:39:19;21.30;57.50
42683;DHT22;28293;50.930;3.464;2022-07-10T08:41:48;21.30;56.90
42683;DHT22;28293;50.930;3.464;2022-07-10T08:44:17;21.60;57.00
42683;DHT22;28293;50.930;3.464;2022-07-10T08:46:44;21.60;55.30
42683;DHT22;28293;50.930;3.464;2022-07-10T08:49:10;21.60;55.70
42683;DHT22;28293;50.930;3.464;2022-07-10T08:52:06;21.70;54.80
42683;DHT22;28293;50.930;3.464;2022-07-10T08:54:33;21.80;56.90
42683;DHT22;28293;50.930;3.464;2022-07-10T08:57:01;22.00;56.20
42683;DHT22;28293;50.930;3.464;2022-07-10T08:59:27;22.30;55.00
42683;DHT22;28293;50.930;3.464;2022-07-10T09:01:53;22.50;54.50
42683;DHT22;28293;50.930;3.464;2022-07-10T09:04:22;22.40;55.10
42683;DHT22;28293;50.930;3.464;2022-07-10T09:06:48;22.50;55.60
42683;DHT22;28293;50.930;3.464;2022-07-10T09:09:14;22.50;55.50
42683;DHT22;28293;50.930;3.464;2022-07-10T09:11:40;22.50;54.70
42683;DHT22;28293;50.930;3.464;2022-07-10T09:14:08;22.60;54.80
42683;DHT22;28293;50.930;3.464;2022-07-10T09:16:37;22.40;54.50
42683;DHT22;28293;50.930;3.464;2022-07-10T09:19:24;22.80;54.40
42683;DHT22;28293;50.930;3.464;2022-07-10T09:21:55;23.00;53.40
42683;DHT22;28293;50.930;3.464;2022-07-10T09:24:25;23.20;52.60
42683;DHT22;28293;50.930;3.464;2022-07-10T09:29:22;23.60;50.50
42683;DHT22;28293;50.930;3.464;2022-07-10T09:34:34;23.60;49.60
42683;DHT22;28293;50.930;3.464;2022-07-10T09:37:24;23.90;49.80
42683;DHT22;28293;50.930;3.464;2022-07-10T09:39:54;23.80;50.90
42683;DHT22;28293;50.930;3.464;2022-07-10T09:42:34;23.70;50.30
42683;DHT22;28293;50.930;3.464;2022-07-10T09:45:13;24.00;49.70
42683;DHT22;28293;50.930;3.464;2022-07-10T09:47:39;24.30;48.90
42683;DHT22;28293;50.930;3.464;2022-07-10T09:52:50;24.70;47.90
42683;DHT22;28293;50.930;3.464;2022-07-10T09:55:19;24.70;48.90
42683;DHT22;28293;50.930;3.464;2022-07-10T09:57:52;24.80;47.90
42683;DHT22;28293;50.930;3.464;2022-07-10T10:00:19;24.50;47.70
42683;DHT22;28293;50.930;3.464;2022-07-10T10:02:45;24.80;47.30
42683;DHT22;28293;50.930;3.464;2022-07-10T10:05:12;25.30;46.30
42683;DHT22;28293;50.930;3.464;2022-07-10T10:07:39;25.20;46.90
42683;DHT22;28293;50.930;3.464;2022-07-10T10:10:07;25.00;46.60
42683;DHT22;28293;50.930;3.464;2022-07-10T10:12:42;24.30;48.10
42683;DHT22;28293;50.930;3.464;2022-07-10T10:15:10;24.60;47.90
42683;DHT22;28293;50.930;3.464;2022-07-10T10:17:38;25.00;47.70
42683;DHT22;28293;50.930;3.464;2022-07-10T10:20:06;25.40;47.40
42683;DHT22;28293;50.930;3.464;2022-07-10T10:22:52;25.70;45.90
42683;DHT22;28293;50.930;3.464;2022-07-10T10:25:22;25.80;46.50
42683;DHT22;28293;50.930;3.464;2022-07-10T10:27:50;25.80;44.50
42683;DHT22;28293;50.930;3.464;2022-07-10T10:30:16;25.10;47.10
42683;DHT22;28293;50.930;3.464;2022-07-10T10:32:42;25.30;47.40
42683;DHT22;28293;50.930;3.464;2022-07-10T10:35:08;25.10;46.30
42683;DHT22;28293;50.930;3.464;2022-07-10T10:37:41;25.00;46.40
42683;DHT22;28293;50.930;3.464;2022-07-10T10:40:10;25.10;47.70
42683;DHT22;28293;50.930;3.464;2022-07-10T10:42:43;25.20;47.10
42683;DHT22;28293;50.930;3.464;2022-07-10T10:45:31;25.30;46.60
42683;DHT22;28293;50.930;3.464;2022-07-10T10:48:09;25.10;47.90
42683;DHT22;28293;50.930;3.464;2022-07-10T10:50:42;25.00;47.80
42683;DHT22;28293;50.930;3.464;2022-07-10T10:53:26;25.30;47.40
42683;DHT22;28293;50.930;3.464;2022-07-10T11:01:05;25.70;47.90
42683;DHT22;28293;50.930;3.464;2022-07-10T11:03:34;25.90;46.70
42683;DHT22;28293;50.930;3.464;2022-07-10T11:06:00;25.60;45.40
42683;DHT22;28293;50.930;3.464;2022-07-10T11:08:39;25.50;46.60
42683;DHT22;28293;50.930;3.464;2022-07-10T11:13:59;25.60;47.10
42683;DHT22;28293;50.930;3.464;2022-07-10T11:16:25;25.50;46.30
42683;DHT22;28293;50.930;3.464;2022-07-10T11:18:55;25.50;47.20
42683;DHT22;28293;50.930;3.464;2022-07-10T11:21:24;25.50;47.10
42683;DHT22;28293;50.930;3.464;2022-07-10T11:24:01;25.00;48.30
42683;DHT22;28293;50.930;3.464;2022-07-10T11:26:36;25.00;48.90
42683;DHT22;28293;50.930;3.464;2022-07-10T11:29:05;25.10;48.30
42683;DHT22;28293;50.930;3.464;2022-07-10T11:31:32;25.20;47.50
42683;DHT22;28293;50.930;3.464;2022-07-10T11:34:03;25.60;46.90
42683;DHT22;28293;50.930;3.464;2022-07-10T11:36:30;25.30;47.00
42683;DHT22;28293;50.930;3.464;2022-07-10T11:41:27;25.10;47.90
42683;DHT22;28293;50.930;3.464;2022-07-10T11:43:54;25.40;47.90
42683;DHT22;28293;50.930;3.464;2022-07-10T11:46:22;24.90;46.90
42683;DHT22;28293;50.930;3.464;2022-07-10T11:48:50;25.40;47.60
42683;DHT22;28293;50.930;3.464;2022-07-10T11:54:10;25.20;47.00
42683;DHT22;28293;50.930;3.464;2022-07-10T11:56:38;25.10;46.80
42683;DHT22;28293;50.930;3.464;2022-07-10T11:59:07;25.50;47.00
42683;DHT22;28293;50.930;3.464;2022-07-10T12:01:35;25.50;46.80
42683;DHT22;28293;50.930;3.464;2022-07-10T12:04:06;25.10;48.70
42683;DHT22;28293;50.930;3.464;2022-07-10T12:06:41;25.20;47.50
42683;DHT22;28293;50.930;3.464;2022-07-10T12:09:09;25.20;48.60
42683;DHT22;28293;50.930;3.464;2022-07-10T12:11:36;25.50;47.50
42683;DHT22;28293;50.930;3.464;2022-07-10T12:14:20;25.60;46.60
42683;DHT22;28293;50.930;3.464;2022-07-10T12:16:49;25.70;46.80
42683;DHT22;28293;50.930;3.464;2022-07-10T12:19:16;25.90;47.00
42683;DHT22;28293;50.930;3.464;2022-07-10T12:21:44;25.70;46.70
42683;DHT22;28293;50.930;3.464;2022-07-10T12:24:11;25.60;46.50
42683;DHT22;28293;50.930;3.464;2022-07-10T12:26:39;25.80;46.70
42683;DHT22;28293;50.930;3.464;2022-07-10T12:31:51;25.80;45.60
42683;DHT22;28293;50.930;3.464;2022-07-10T12:34:17;25.70;46.30
42683;DHT22;28293;50.930;3.464;2022-07-10T12:36:48;25.70;46.00
42683;DHT22;28293;50.930;3.464;2022-07-10T12:39:24;25.20;47.30
42683;DHT22;28293;50.930;3.464;2022-07-10T12:42:03;25.50;46.60
42683;DHT22;28293;50.930;3.464;2022-07-10T12:44:49;25.60;46.90
42683;DHT22;28293;50.930;3.464;2022-07-10T12:47:16;26.00;45.90
42683;DHT22;28293;50.930;3.464;2022-07-10T12:54:46;25.60;47.50
42683;DHT22;28293;50.930;3.464;2022-07-10T12:57:12;25.80;46.90
42683;DHT22;28293;50.930;3.464;2022-07-10T12:59:38;25.80;47.10
42683;DHT22;28293;50.930;3.464;2022-07-10T13:02:18;25.80;45.60
42683;DHT22;28293;50.930;3.464;2022-07-10T13:04:54;25.80;46.40
42683;DHT22;28293;50.930;3.464;2022-07-10T13:07:28;25.40;46.40
42683;DHT22;28293;50.930;3.464;2022-07-10T13:09:54;25.80;46.20
42683;DHT22;28293;50.930;3.464;2022-07-10T13:12:19;26.10;45.90
42683;DHT22;28293;50.930;3.464;2022-07-10T13:14:45;26.40;45.20
42683;DHT22;28293;50.930;3.464;2022-07-10T13:17:12;26.90;44.50
42683;DHT22;28293;50.930;3.464;2022-07-10T13:19:37;26.70;44.20
42683;DHT22;28293;50.930;3.464;2022-07-10T13:22:03;26.10;45.60
42683;DHT22;28293;50.930;3.464;2022-07-10T13:24:29;26.30;45.90
42683;DHT22;28293;50.930;3.464;2022-07-10T13:26:54;26.60;46.30
42683;DHT22;28293;50.930;3.464;2022-07-10T13:29:22;26.50;45.20
42683;DHT22;28293;50.930;3.464;2022-07-10T13:31:48;26.40;45.60
42683;DHT22;28293;50.930;3.464;2022-07-10T13:34:13;26.60;45.00
42683;DHT22;28293;50.930;3.464;2022-07-10T13:36:39;26.90;44.10
42683;DHT22;28293;50.930;3.464;2022-07-10T13:39:05;27.00;45.40
42683;DHT22;28293;50.930;3.464;2022-07-10T13:41:30;26.80;44.60
42683;DHT22;28293;50.930;3.464;2022-07-10T13:43:56;26.70;44.80
42683;DHT22;28293;50.930;3.464;2022-07-10T13:46:22;27.00;45.10
42683;DHT22;28293;50.930;3.464;2022-07-10T13:48:47;27.20;44.60
42683;DHT22;28293;50.930;3.464;2022-07-10T13:51:13;27.30;45.00
42683;DHT22;28293;50.930;3.464;2022-07-10T13:53:39;27.40;43.80
42683;DHT22;28293;50.930;3.464;2022-07-10T13:56:06;27.40;43.70
42683;DHT22;28293;50.930;3.464;2022-07-10T13:58:32;27.20;44.40
42683;DHT22;28293;50.930;3.464;2022-07-10T14:00:58;27.20;43.60
42683;DHT22;28293;50.930;3.464;2022-07-10T14:03:25;27.20;43.70
42683;DHT22;28293;50.930;3.464;2022-07-10T14:05:50;27.00;44.10
42683;DHT22;28293;50.930;3.464;2022-07-10T14:08:16;26.60;44.30
42683;DHT22;28293;50.930;3.464;2022-07-10T14:10:42;26.30;44.90
42683;DHT22;28293;50.930;3.464;2022-07-10T14:13:07;26.40;44.70
42683;DHT22;28293;50.930;3.464;2022-07-10T14:15:36;26.50;44.20
42683;DHT22;28293;50.930;3.464;2022-07-10T14:18:02;26.60;44.70
42683;DHT22;28293;50.930;3.464;2022-07-10T14:20:30;26.70;45.60
42683;DHT22;28293;50.930;3.464;2022-07-10T14:23:16;27.00;44.10
42683;DHT22;28293;50.930;3.464;2022-07-10T14:25:42;26.80;43.50
42683;DHT22;28293;50.930;3.464;2022-07-10T14:28:07;27.10;43.90
42683;DHT22;28293;50.930;3.464;2022-07-10T14:30:33;27.00;43.50
42683;DHT22;28293;50.930;3.464;2022-07-10T14:32:59;27.10;44.20
42683;DHT22;28293;50.930;3.464;2022-07-10T14:35:24;27.10;43.90
42683;DHT22;28293;50.930;3.464;2022-07-10T14:37:50;26.80;44.50
42683;DHT22;28293;50.930;3.464;2022-07-10T14:40:16;26.70;44.30
42683;DHT22;28293;50.930;3.464;2022-07-10T14:42:41;26.80;44.50
42683;DHT22;28293;50.930;3.464;2022-07-10T14:45:07;26.80;43.90
42683;DHT22;28293;50.930;3.464;2022-07-10T14:47:33;26.90;43.90
42683;DHT22;28293;50.930;3.464;2022-07-10T14:49:59;26.90;42.70
42683;DHT22;28293;50.930;3.464;2022-07-10T14:52:25;26.80;43.30
42683;DHT22;28293;50.930;3.464;2022-07-10T14:54:53;26.70;43.10
42683;DHT22;28293;50.930;3.464;2022-07-10T14:57:19;26.80;44.20
42683;DHT22;28293;50.930;3.464;2022-07-10T14:59:44;26.90;43.10
42683;DHT22;28293;50.930;3.464;2022-07-10T15:02:10;26.60;43.20
42683;DHT22;28293;50.930;3.464;2022-07-10T15:04:36;26.30;44.90
42683;DHT22;28293;50.930;3.464;2022-07-10T15:07:02;26.40;43.80
42683;DHT22;28293;50.930;3.464;2022-07-10T15:09:28;26.60;43.20
42683;DHT22;28293;50.930;3.464;2022-07-10T15:11:53;26.90;43.10
42683;DHT22;28293;50.930;3.464;2022-07-10T15:14:20;26.60;43.10
42683;DHT22;28293;50.930;3.464;2022-07-10T15:16:46;26.50;43.00
42683;DHT22;28293;50.930;3.464;2022-07-10T15:19:12;26.60;43.20
42683;DHT22;28293;50.930;3.464;2022-07-10T15:21:37;26.60;42.30
42683;DHT22;28293;50.930;3.464;2022-07-10T15:24:03;26.30;43.00
42683;DHT22;28293;50.930;3.464;2022-07-10T15:26:29;26.30;43.60
42683;DHT22;28293;50.930;3.464;2022-07-10T15:28:55;26.40;43.20
42683;DHT22;28293;50.930;3.464;2022-07-10T15:31:23;26.50;42.90
42683;DHT22;28293;50.930;3.464;2022-07-10T15:33:49;26.50;43.40
42683;DHT22;28293;50.930;3.464;2022-07-10T15:36:14;26.50;43.50
42683;DHT22;28293;50.930;3.464;2022-07-10T15:38:40;26.70;42.50
42683;DHT22;28293;50.930;3.464;2022-07-10T15:41:06;26.40;43.10
42683;DHT22;28293;50.930;3.464;2022-07-10T15:43:32;26.40;42.50
42683;DHT22;28293;50.930;3.464;2022-07-10T15:45:57;26.20;43.60
42683;DHT22;28293;50.930;3.464;2022-07-10T15:48:24;26.20;43.80
42683;DHT22;28293;50.930;3.464;2022-07-10T15:50:50;26.40;42.80
42683;DHT22;28293;50.930;3.464;2022-07-10T15:53:16;26.50;43.70
42683;DHT22;28293;50.930;3.464;2022-07-10T15:55:41;26.50;43.30
42683;DHT22;28293;50.930;3.464;2022-07-10T15:58:07;26.50;42.40
42683;DHT22;28293;50.930;3.464;2022-07-10T16:00:33;26.50;43.10